Jump to content

  •  

AMERICAN AIRLINES FLIGHT AA562 FLOWN ON 06-18-2017 BY CAPTAIN JIM BOERMAN

Pilot StatsCaptain Jim Boerman (LDP136) • 4,686.4 total hours • 1,423 total flights [View Logbook]
FLIGHT DETAILS
StatusReceived and approved on 2017-06-18 at 10:06:02
Origin AirportV C Bird Intl (TAPA) • St Johns, Antigua and Barbuda (60 feet MSL)
Filed Flight PlanFLIGHT PLANNER OFFLINE
Destination AirportLuis Munoz Marin Intl (TJSJ) • San Juan, Puerto Rico (9 feet MSL)
Alternate AirportKing (TIST) • St Thomas I-Charlotte Am, Virgin Islands, U.S. (23 feet MSL)
AirlineAmerican Airlines
AircraftBoeing 757-200 | Winglets (75W / B757-200)
FS Aircraft UsedQWSim Boeing 757-200WL AA N611AM 2013 QWHDT
Cruising AltitudeFL360
Distance Flown253 nautical miles
Passengers Onboard108 passengers (58.06% full)
DEPARTURE DETAILS
Time Out09:25:09
Taxi Data196,568 lbs total with 16,188 lbs of fuel onboard
Takeoff Data09:34:03 (9 minutes after leaving gate/ramp) • 195,434 lbs total • 4° pitch at 165 knots
Departure METARTAPA 181200Z 08011KT 9999 SCT018 29/22 Q1016 NOSIG
ARRIVAL DETAILS
Landing Data10:24:24 • 187,353 lbs total • 2° pitch doing 136 knots at a rate of -66.90 feet/minute with 6,251 lbs of fuel onboard
Time In10:31:33 (7 minutes after landing)
Ramp Weight186,631 lbs total
Total Fuel Used9,937 lbs
Total Block Time01:04:58 (1.1 hours) while 16 minutes were spent on the ground
Arrival METARTJSJ 181356Z 10013G18KT 10SM FEW029 SCT055 SCT120 30/23 A3003 RMK AO2 SLP167 VCSH SW T03000228
MISCELLANEOUS DETAILS
LiveDISPATCH Version4.8.3.1
FS Version
FSUIPC Version4.93
OS VersionWindows 7 32-bit
Screen Resolution1920 x 1080
Pilot's CommentsNo Comments Reported
FLIGHT MAP